Time;durP1;ratioP1;P1;durP2;ratioP2;P2;SDS_P1;SDS_P2;PMS_P1;PMS_P2;Temp;Humidity;BMP_temperature;BMP_pressure;BME280_temperature;BME280_humidity;BME280_pressure;Samples;Min_cycle;Max_cycle;Signal;HPM_P1;HPM_P2
2023/06/24 00:01:28;;;;;;;13.05;7.65;;;;;;;;;;5051252;28;20040;-66
2023/06/24 00:03:53;;;;;;;12.30;6.80;;;;;;;;;;5050654;28;20013;-64
2023/06/24 00:06:19;;;;;;;12.27;7.22;;;;;;;;;;5051255;28;20075;-65
2023/06/24 00:08:44;;;;;;;10.82;6.90;;;;;;;;;;5046717;28;20016;-65
2023/06/24 00:11:10;;;;;;;12.18;7.53;;;;;;;;;;5042052;28;20476;-65
2023/06/24 00:13:35;;;;;;;12.48;7.03;;;;;;;;;;5030988;28;20013;-64
2023/06/24 00:16:00;;;;;;;13.88;7.25;;;;;;;;;;5030940;28;20580;-65
2023/06/24 00:18:29;;;;;;;10.05;6.82;;;;;;;;;;5030982;28;20029;-66
2023/06/24 00:20:54;;;;;;;10.65;6.70;;;;;;;;;;5031834;28;20049;-65
2023/06/24 00:23:24;;;;;;;12.88;6.75;;;;;;;;;;5030130;28;20664;-66
2023/06/24 00:25:50;;;;;;;10.38;6.32;;;;;;;;;;5044914;28;20069;-64
2023/06/24 00:28:15;;;;;;;11.75;6.75;;;;;;;;;;5041206;28;20041;-65
2023/06/24 00:30:40;;;;;;;14.65;8.75;;;;;;;;;;5030677;28;20055;-66
2023/06/24 00:33:09;;;;;;;14.60;8.03;;;;;;;;;;5029983;28;20018;-64
2023/06/24 00:35:34;;;;;;;13.35;7.38;;;;;;;;;;5032284;28;20021;-63
2023/06/24 00:37:59;;;;;;;14.68;7.78;;;;;;;;;;5031436;28;20024;-66
2023/06/24 00:40:24;;;;;;;16.60;8.55;;;;;;;;;;5033618;28;20144;-65
2023/06/24 00:42:49;;;;;;;15.40;8.30;;;;;;;;;;5049257;28;20051;-66
2023/06/24 00:45:16;;;;;;;18.88;10.13;;;;;;;;;;5030947;28;20033;-65
2023/06/24 00:47:41;;;;;;;16.00;9.52;;;;;;;;;;5043918;28;20029;-65
2023/06/24 00:50:06;;;;;;;14.75;8.80;;;;;;;;;;5051393;28;20090;-65
2023/06/24 00:52:32;;;;;;;14.97;9.03;;;;;;;;;;5042525;28;20021;-66
2023/06/24 00:54:57;;;;;;;15.85;9.48;;;;;;;;;;5033986;28;20090;-66
2023/06/24 00:57:25;;;;;;;20.67;10.65;;;;;;;;;;5040117;28;20021;-66
2023/06/24 00:59:54;;;;;;;19.02;10.00;;;;;;;;;;5033339;28;20021;-66
2023/06/24 01:02:20;;;;;;;20.60;10.82;;;;;;;;;;5029946;28;20116;-66
2023/06/24 01:04:46;;;;;;;19.02;10.30;;;;;;;;;;5030647;28;20025;-67
2023/06/24 01:07:11;;;;;;;17.30;10.63;;;;;;;;;;5030671;28;20033;-66
2023/06/24 01:09:36;;;;;;;19.55;10.35;;;;;;;;;;5030516;28;20083;-65
2023/06/24 01:12:02;;;;;;;25.20;12.18;;;;;;;;;;5046247;28;20036;-65
2023/06/24 01:14:27;;;;;;;20.73;11.90;;;;;;;;;;5044415;28;20362;-65
2023/06/24 01:16:56;;;;;;;20.90;11.17;;;;;;;;;;5050326;28;20025;-65
2023/06/24 01:19:36;;;;;;;19.38;11.63;;;;;;;;;;5045687;28;20040;-67
2023/06/24 01:22:11;;;;;;;20.75;12.00;;;;;;;;;;5043414;28;20013;-67
2023/06/24 01:24:55;;;;;;;22.55;12.30;;;;;;;;;;5048955;28;20040;-66
2023/06/24 01:27:29;;;;;;;18.67;11.25;;;;;;;;;;5030504;28;20505;-66
2023/06/24 01:30:03;;;;;;;22.05;11.68;;;;;;;;;;5030274;28;20037;-65
2023/06/24 01:32:35;;;;;;;18.25;10.73;;;;;;;;;;5038386;28;20360;-66
2023/06/24 01:35:12;;;;;;;21.60;12.45;;;;;;;;;;5043374;28;20343;-65
2023/06/24 01:37:48;;;;;;;21.63;11.93;;;;;;;;;;5050286;28;20023;-66
2023/06/24 01:40:16;;;;;;;23.80;12.60;;;;;;;;;;5051015;28;20013;-65
2023/06/24 01:42:42;;;;;;;22.90;12.55;;;;;;;;;;5051012;28;20029;-64
2023/06/24 01:45:08;;;;;;;;;;;;;;;;;;5056484;28;20072;-65
2023/06/24 01:47:33;;;;;;;23.48;12.52;;;;;;;;;;5055221;28;19951;-64
2023/06/24 01:50:01;;;;;;;28.55;14.13;;;;;;;;;;5053694;28;20456;-64
2023/06/24 01:52:27;;;;;;;25.35;14.98;;;;;;;;;;5053392;28;20381;-64
2023/06/24 01:54:52;;;;;;;;;;;;;;;;;;5054153;28;20025;-65
2023/06/24 01:57:18;;;;;;;25.52;14.18;;;;;;;;;;5053727;28;19908;-65
2023/06/24 01:59:44;;;;;;;21.77;12.82;;;;;;;;;;5053484;28;20025;-64
2023/06/24 02:02:10;;;;;;;24.80;14.63;;;;;;;;;;5052584;28;20028;-65
2023/06/24 02:04:36;;;;;;;24.13;13.82;;;;;;;;;;5044426;28;20033;-64
2023/06/24 02:07:02;;;;;;;23.88;13.55;;;;;;;;;;5053545;28;20017;-64
2023/06/24 02:09:28;;;;;;;23.10;12.85;;;;;;;;;;5053327;28;20541;-65
2023/06/24 02:11:54;;;;;;;24.75;13.70;;;;;;;;;;5051409;28;20017;-65
2023/06/24 02:14:20;;;;;;;24.88;14.68;;;;;;;;;;5049325;28;20369;-67
2023/06/24 02:16:46;;;;;;;21.45;12.73;;;;;;;;;;5053267;28;20029;-65
2023/06/24 02:19:11;;;;;;;24.08;13.00;;;;;;;;;;5053199;28;20056;-65
2023/06/24 02:21:38;;;;;;;22.02;12.50;;;;;;;;;;5050199;28;20052;-65
2023/06/24 02:24:04;;;;;;;21.80;12.35;;;;;;;;;;5038645;28;20059;-65
2023/06/24 02:26:29;;;;;;;28.73;15.20;;;;;;;;;;5033295;28;20029;-64
2023/06/24 02:28:54;;;;;;;24.13;14.07;;;;;;;;;;5038061;28;20093;-64
2023/06/24 02:31:19;;;;;;;27.77;14.67;;;;;;;;;;5037587;28;20021;-65
2023/06/24 02:33:45;;;;;;;29.23;14.55;;;;;;;;;;5052130;28;20025;-65
2023/06/24 02:36:11;;;;;;;25.30;15.55;;;;;;;;;;5042758;28;20392;-66
2023/06/24 02:38:36;;;;;;;25.35;15.30;;;;;;;;;;5047098;28;20025;-64
2023/06/24 02:41:04;;;;;;;30.00;15.82;;;;;;;;;;5039598;28;20036;-65
2023/06/24 02:43:29;;;;;;;25.45;15.10;;;;;;;;;;5052206;28;20398;-65
2023/06/24 02:45:54;;;;;;;25.65;14.88;;;;;;;;;;5044970;28;20025;-65
2023/06/24 02:48:20;;;;;;;27.08;15.90;;;;;;;;;;5046204;28;20032;-65
2023/06/24 02:50:46;;;;;;;26.75;15.55;;;;;;;;;;5051547;28;20097;-64
2023/06/24 02:53:12;;;;;;;31.45;15.90;;;;;;;;;;5052136;28;20068;-63
2023/06/24 02:55:37;;;;;;;;;;;;;;;;;;5059166;28;20032;-64
2023/06/24 02:58:03;;;;;;;28.60;14.85;;;;;;;;;;5035937;28;20028;-65
2023/06/24 03:00:33;;;;;;;30.85;16.63;;;;;;;;;;5031770;28;20021;-64
2023/06/24 03:02:59;;;;;;;28.33;17.02;;;;;;;;;;5031775;28;20047;-64
2023/06/24 03:05:25;;;;;;;29.70;16.40;;;;;;;;;;5032777;28;20732;-64
2023/06/24 03:07:51;;;;;;;27.83;15.98;;;;;;;;;;5051706;28;20504;-64
2023/06/24 03:10:16;;;;;;;31.23;16.92;;;;;;;;;;5044411;28;20085;-65
2023/06/24 03:12:41;;;;;;;27.07;15.93;;;;;;;;;;5031697;28;20027;-62
2023/06/24 03:15:06;;;;;;;29.35;16.10;;;;;;;;;;5042014;28;20060;-66
2023/06/24 03:17:31;;;;;;;28.77;17.03;;;;;;;;;;5047067;28;20388;-63
2023/06/24 03:19:57;;;;;;;33.65;17.92;;;;;;;;;;5044316;28;20858;-63
2023/06/24 03:22:22;;;;;;;28.77;16.50;;;;;;;;;;5045195;28;20466;-64
2023/06/24 03:24:47;;;;;;;28.73;15.70;;;;;;;;;;5048208;28;20037;-63
2023/06/24 03:27:12;;;;;;;26.73;15.38;;;;;;;;;;5036729;28;20028;-64
2023/06/24 03:29:38;;;;;;;30.40;16.00;;;;;;;;;;5031742;28;20030;-63
2023/06/24 03:32:03;;;;;;;29.13;16.87;;;;;;;;;;5031425;28;20025;-63
2023/06/24 03:34:28;;;;;;;29.95;17.83;;;;;;;;;;5046146;28;20444;-63
2023/06/24 03:36:56;;;;;;;27.33;16.88;;;;;;;;;;5051972;28;20056;-63
2023/06/24 03:39:22;;;;;;;28.98;17.55;;;;;;;;;;5034163;28;20432;-64
2023/06/24 03:41:47;;;;;;;24.92;15.10;;;;;;;;;;5051157;28;20020;-62
2023/06/24 03:44:12;;;;;;;30.77;16.08;;;;;;;;;;5051460;28;20380;-64
2023/06/24 03:46:37;;;;;;;24.97;14.97;;;;;;;;;;5032427;28;20036;-63
2023/06/24 03:49:02;;;;;;;30.40;16.27;;;;;;;;;;5031645;28;20104;-63
2023/06/24 03:51:28;;;;;;;24.43;14.10;;;;;;;;;;5035226;28;20024;-63
2023/06/24 03:53:53;;;;;;;28.07;16.37;;;;;;;;;;5030941;28;20160;-63
2023/06/24 03:56:18;;;;;;;31.20;17.00;;;;;;;;;;5032487;28;20029;-62
2023/06/24 03:58:43;;;;;;;21.73;14.30;;;;;;;;;;5050986;28;20116;-64
2023/06/24 04:01:09;;;;;;;22.95;14.40;;;;;;;;;;5051868;28;20017;-64
2023/06/24 04:03:34;;;;;;;32.38;15.38;;;;;;;;;;5051025;28;20020;-64
2023/06/24 04:06:01;;;;;;;25.13;14.80;;;;;;;;;;5041338;28;20509;-63
2023/06/24 04:08:29;;;;;;;24.38;14.10;;;;;;;;;;5033509;28;20428;-63
2023/06/24 04:10:54;;;;;;;24.40;15.00;;;;;;;;;;5033069;28;20068;-63
2023/06/24 04:13:19;;;;;;;23.45;14.43;;;;;;;;;;5030903;28;20508;-64
2023/06/24 04:15:44;;;;;;;21.27;13.70;;;;;;;;;;5045446;28;20028;-62
2023/06/24 04:18:09;;;;;;;23.67;13.98;;;;;;;;;;5051030;28;20021;-63
2023/06/24 04:20:35;;;;;;;25.30;14.17;;;;;;;;;;5038402;28;20022;-63
2023/06/24 04:23:00;;;;;;;26.87;13.87;;;;;;;;;;5030756;28;20036;-63
2023/06/24 04:25:25;;;;;;;18.30;12.90;;;;;;;;;;5031007;28;20845;-63
2023/06/24 04:27:50;;;;;;;21.00;12.03;;;;;;;;;;5047373;28;20466;-64
2023/06/24 04:30:16;;;;;;;19.50;12.70;;;;;;;;;;5044110;28;20025;-63
2023/06/24 04:32:41;;;;;;;19.67;12.23;;;;;;;;;;5040363;28;20056;-63
2023/06/24 04:35:06;;;;;;;20.63;12.48;;;;;;;;;;5030797;28;20030;-64
2023/06/24 04:37:31;;;;;;;22.30;12.35;;;;;;;;;;5036484;28;20104;-63
2023/06/24 04:39:56;;;;;;;23.65;11.00;;;;;;;;;;5036146;28;20063;-61
2023/06/24 04:42:22;;;;;;;19.90;10.75;;;;;;;;;;5050085;28;20017;-63
2023/06/24 04:44:51;;;;;;;20.05;10.52;;;;;;;;;;5048833;28;20029;-62
2023/06/24 04:47:17;;;;;;;18.60;11.10;;;;;;;;;;5046511;28;20029;-62
2023/06/24 04:49:42;;;;;;;16.80;10.10;;;;;;;;;;5030931;28;20040;-63
2023/06/24 04:52:07;;;;;;;18.80;10.32;;;;;;;;;;5030504;28;20496;-63
2023/06/24 04:54:32;;;;;;;20.30;11.80;;;;;;;;;;5041484;28;20028;-63
2023/06/24 04:56:58;;;;;;;18.75;10.35;;;;;;;;;;5050231;28;20112;-63
2023/06/24 04:59:23;;;;;;;17.30;10.35;;;;;;;;;;5038579;28;20029;-63
2023/06/24 05:01:48;;;;;;;19.27;11.25;;;;;;;;;;5030375;28;20029;-63
2023/06/24 05:04:13;;;;;;;16.17;9.35;;;;;;;;;;5035429;28;20078;-63
2023/06/24 05:06:38;;;;;;;23.65;11.75;;;;;;;;;;5047495;28;20021;-64
2023/06/24 05:09:03;;;;;;;17.77;10.87;;;;;;;;;;5030426;28;20038;-63
2023/06/24 05:11:29;;;;;;;20.00;12.23;;;;;;;;;;5039144;28;20083;-63
2023/06/24 05:13:54;;;;;;;17.67;11.38;;;;;;;;;;5037402;28;20101;-63
2023/06/24 05:16:19;;;;;;;20.33;11.23;;;;;;;;;;5030008;28;20075;-63
2023/06/24 05:18:45;;;;;;;20.63;11.88;;;;;;;;;;5033695;28;20994;-63
2023/06/24 05:21:10;;;;;;;19.17;11.38;;;;;;;;;;5034764;28;20018;-63
2023/06/24 05:23:35;;;;;;;14.10;9.90;;;;;;;;;;5034020;28;20105;-63
2023/06/24 05:26:01;;;;;;;23.33;13.63;;;;;;;;;;5034170;28;20590;-62
2023/06/24 05:28:26;;;;;;;21.98;13.15;;;;;;;;;;5043540;28;20060;-63
2023/06/24 05:30:51;;;;;;;22.88;14.35;;;;;;;;;;5054017;28;20052;-63
2023/06/24 05:33:16;;;;;;;27.38;16.95;;;;;;;;;;5036704;28;20358;-63
2023/06/24 05:35:43;;;;;;;21.83;14.88;;;;;;;;;;5033960;28;20065;-63
2023/06/24 05:38:08;;;;;;;26.00;17.10;;;;;;;;;;5034152;28;20053;-64
2023/06/24 05:40:33;;;;;;;26.17;16.48;;;;;;;;;;5042686;28;20437;-62
2023/06/24 05:42:58;;;;;;;23.00;14.63;;;;;;;;;;5040822;28;20025;-63
2023/06/24 05:45:23;;;;;;;22.83;14.40;;;;;;;;;;5041333;28;20032;-65
2023/06/24 05:47:48;;;;;;;20.90;15.20;;;;;;;;;;5044038;28;20135;-63
2023/06/24 05:50:14;;;;;;;23.80;15.33;;;;;;;;;;5037319;28;20045;-62
2023/06/24 05:52:39;;;;;;;25.47;16.47;;;;;;;;;;5045221;28;20029;-65
2023/06/24 05:55:04;;;;;;;26.30;17.42;;;;;;;;;;5052949;28;20408;-64
2023/06/24 05:57:29;;;;;;;27.20;17.05;;;;;;;;;;5035058;28;20021;-62
2023/06/24 05:59:54;;;;;;;26.10;16.43;;;;;;;;;;5035637;28;20042;-62
2023/06/24 06:02:20;;;;;;;24.20;16.02;;;;;;;;;;5036085;28;20074;-62
2023/06/24 06:04:46;;;;;;;27.08;16.48;;;;;;;;;;5052581;28;20062;-65
2023/06/24 06:07:11;;;;;;;31.50;16.92;;;;;;;;;;5053538;28;20052;-61
2023/06/24 06:09:37;;;;;;;27.42;16.80;;;;;;;;;;5043380;28;20051;-64
2023/06/24 06:12:02;;;;;;;27.30;15.63;;;;;;;;;;5045519;28;20033;-65
2023/06/24 06:14:28;;;;;;;30.65;17.83;;;;;;;;;;5043342;28;20176;-62
2023/06/24 06:16:53;;;;;;;28.13;16.92;;;;;;;;;;5036526;28;20036;-63
2023/06/24 06:19:18;;;;;;;27.92;15.43;;;;;;;;;;5052452;28;20463;-63
2023/06/24 06:21:43;;;;;;;30.80;17.27;;;;;;;;;;5053542;28;20017;-64
2023/06/24 06:24:08;;;;;;;32.20;17.02;;;;;;;;;;5053006;28;20472;-64
2023/06/24 06:26:33;;;;;;;32.30;17.10;;;;;;;;;;5043748;28;20033;-65
2023/06/24 06:28:59;;;;;;;33.70;17.50;;;;;;;;;;5053012;28;20028;-62
2023/06/24 06:31:25;;;;;;;26.13;15.52;;;;;;;;;;5048555;28;20170;-62
2023/06/24 06:33:51;;;;;;;26.73;16.92;;;;;;;;;;5037081;28;20032;-63
2023/06/24 06:36:16;;;;;;;29.55;17.40;;;;;;;;;;5033125;28;20036;-63
2023/06/24 06:38:41;;;;;;;30.67;17.23;;;;;;;;;;5034802;28;20475;-64
2023/06/24 06:41:06;;;;;;;30.55;17.65;;;;;;;;;;5038782;28;20108;-64
2023/06/24 06:43:32;;;;;;;26.17;16.30;;;;;;;;;;5038718;28;20025;-64
2023/06/24 06:45:57;;;;;;;25.90;15.73;;;;;;;;;;5047474;28;20025;-63
2023/06/24 06:48:23;;;;;;;26.48;16.60;;;;;;;;;;5049960;28;20021;-64
2023/06/24 06:50:48;;;;;;;28.40;16.33;;;;;;;;;;5041826;28;20034;-63
2023/06/24 06:53:13;;;;;;;23.57;15.53;;;;;;;;;;5033222;28;20048;-62
2023/06/24 06:55:39;;;;;;;22.02;14.88;;;;;;;;;;5034070;28;20032;-64
2023/06/24 06:58:04;;;;;;;26.98;15.10;;;;;;;;;;5036953;28;20105;-63
2023/06/24 07:00:29;;;;;;;25.48;14.40;;;;;;;;;;5046884;28;20203;-64
2023/06/24 07:02:54;;;;;;;27.60;15.63;;;;;;;;;;5045719;28;20051;-63
2023/06/24 07:05:20;;;;;;;22.38;14.65;;;;;;;;;;5048551;28;20037;-63
2023/06/24 07:07:45;;;;;;;27.45;16.17;;;;;;;;;;5051149;28;20021;-62
2023/06/24 07:10:10;;;;;;;28.33;15.68;;;;;;;;;;5042053;28;20029;-63
2023/06/24 07:12:35;;;;;;;29.83;16.70;;;;;;;;;;5040774;28;20028;-64
2023/06/24 07:15:00;;;;;;;25.60;15.00;;;;;;;;;;5042418;28;20059;-62
2023/06/24 07:17:26;;;;;;;27.67;16.33;;;;;;;;;;5035430;28;20037;-63
2023/06/24 07:19:51;;;;;;;31.48;15.30;;;;;;;;;;5044819;28;20052;-63
2023/06/24 07:22:16;;;;;;;24.17;14.13;;;;;;;;;;5039939;28;20025;-63
2023/06/24 07:24:41;;;;;;;25.55;14.50;;;;;;;;;;5050156;28;20477;-62
2023/06/24 07:27:06;;;;;;;23.80;14.15;;;;;;;;;;5033751;28;20025;-64
2023/06/24 07:29:32;;;;;;;22.30;13.87;;;;;;;;;;5047539;28;20025;-63
2023/06/24 07:31:57;;;;;;;24.97;14.43;;;;;;;;;;5042625;28;20021;-64
2023/06/24 07:34:22;;;;;;;23.23;14.18;;;;;;;;;;5042602;28;20041;-64
2023/06/24 07:36:47;;;;;;;22.27;13.85;;;;;;;;;;5046600;28;20036;-62
2023/06/24 07:39:12;;;;;;;20.48;12.60;;;;;;;;;;5039465;28;20036;-64
2023/06/24 07:41:37;;;;;;;22.13;13.13;;;;;;;;;;5041906;28;20079;-64
2023/06/24 07:44:03;;;;;;;18.10;12.03;;;;;;;;;;5048838;28;20481;-63
2023/06/24 07:46:28;;;;;;;18.30;12.10;;;;;;;;;;5045959;28;20449;-63
2023/06/24 07:48:53;;;;;;;17.87;11.60;;;;;;;;;;5050619;28;20020;-63
2023/06/24 07:51:18;;;;;;;20.87;11.13;;;;;;;;;;5054277;28;20520;-64
2023/06/24 07:53:43;;;;;;;18.27;10.73;;;;;;;;;;5040889;28;21307;-62
2023/06/24 07:56:09;;;;;;;17.55;11.25;;;;;;;;;;5035262;28;20033;-64
2023/06/24 07:58:35;;;;;;;17.43;10.73;;;;;;;;;;5046475;28;20083;-62
2023/06/24 08:01:00;;;;;;;17.02;9.35;;;;;;;;;;5050375;28;20801;-63
2023/06/24 08:03:25;;;;;;;17.90;10.57;;;;;;;;;;5050546;28;20071;-64
2023/06/24 08:05:50;;;;;;;18.25;10.88;;;;;;;;;;5050672;28;20060;-62
2023/06/24 08:08:15;;;;;;;17.97;9.70;;;;;;;;;;5040355;28;20029;-63
2023/06/24 08:10:40;;;;;;;14.57;10.03;;;;;;;;;;5050094;28;20383;-66
2023/06/24 08:13:06;;;;;;;14.65;9.02;;;;;;;;;;5037905;28;20020;-63
2023/06/24 08:15:31;;;;;;;14.85;8.88;;;;;;;;;;5038890;28;20048;-64
2023/06/24 08:17:56;;;;;;;13.05;8.57;;;;;;;;;;5045157;28;20560;-62
2023/06/24 08:20:22;;;;;;;15.33;8.73;;;;;;;;;;5054161;28;20034;-63
2023/06/24 08:22:47;;;;;;;12.20;8.40;;;;;;;;;;5047399;28;20480;-64
2023/06/24 08:25:12;;;;;;;15.18;9.43;;;;;;;;;;5041636;28;20028;-64
2023/06/24 08:27:37;;;;;;;13.53;8.33;;;;;;;;;;5050569;28;20017;-63
2023/06/24 08:30:04;;;;;;;12.33;7.77;;;;;;;;;;5056371;28;20035;-63
2023/06/24 08:32:29;;;;;;;15.15;7.60;;;;;;;;;;5054205;28;20024;-63
2023/06/24 08:34:54;;;;;;;14.27;8.52;;;;;;;;;;5045942;28;20371;-65
2023/06/24 08:37:19;;;;;;;12.55;7.85;;;;;;;;;;5049887;28;20508;-66
2023/06/24 08:39:44;;;;;;;13.93;7.70;;;;;;;;;;5054728;28;20037;-63
2023/06/24 08:42:10;;;;;;;11.63;7.82;;;;;;;;;;5053958;28;20640;-63
2023/06/24 08:44:35;;;;;;;11.35;7.05;;;;;;;;;;5054865;28;20068;-62
2023/06/24 08:47:00;;;;;;;12.93;6.83;;;;;;;;;;5058566;28;20041;-63
2023/06/24 08:49:28;;;;;;;10.90;6.50;;;;;;;;;;5060623;28;20043;-61
2023/06/24 08:52:03;;;;;;;11.82;6.13;;;;;;;;;;5059865;28;20024;-63
2023/06/24 08:54:29;;;;;;;11.90;5.53;;;;;;;;;;5055141;28;20062;-61
2023/06/24 08:56:55;;;;;;;9.15;5.40;;;;;;;;;;5050506;28;20028;-63
2023/06/24 08:59:20;;;;;;;9.15;5.55;;;;;;;;;;5053976;28;20017;-62
2023/06/24 09:01:46;;;;;;;8.93;5.03;;;;;;;;;;5049781;28;20023;-64
2023/06/24 09:04:11;;;;;;;18.10;6.38;;;;;;;;;;5048606;28;20075;-64
2023/06/24 09:06:37;;;;;;;9.38;5.85;;;;;;;;;;5052218;28;20060;-63
2023/06/24 09:09:02;;;;;;;8.63;5.10;;;;;;;;;;5037986;28;20041;-63
2023/06/24 09:11:28;;;;;;;9.73;5.17;;;;;;;;;;5041360;28;20025;-62
2023/06/24 09:13:57;;;;;;;9.75;5.03;;;;;;;;;;5034751;28;21143;-64
2023/06/24 09:16:22;;;;;;;8.63;4.32;;;;;;;;;;5044988;28;20055;-62
2023/06/24 09:18:49;;;;;;;9.60;4.67;;;;;;;;;;5050580;28;20528;-62
2023/06/24 09:21:20;;;;;;;9.20;3.95;;;;;;;;;;5053603;28;20096;-63
2023/06/24 09:23:45;;;;;;;8.15;4.35;;;;;;;;;;5056227;28;20493;-64
2023/06/24 09:26:11;;;;;;;9.70;4.30;;;;;;;;;;5046372;28;20025;-63
2023/06/24 09:28:36;;;;;;;8.90;4.40;;;;;;;;;;5040904;28;20029;-65
2023/06/24 09:31:05;;;;;;;7.18;4.03;;;;;;;;;;5054883;28;20033;-64
2023/06/24 09:33:31;;;;;;;7.78;4.03;;;;;;;;;;5043119;28;20036;-65
2023/06/24 09:35:56;;;;;;;7.55;4.30;;;;;;;;;;5056698;28;20079;-63
2023/06/24 09:38:31;;;;;;;9.63;3.90;;;;;;;;;;5046422;28;20028;-62
2023/06/24 09:41:01;;;;;;;6.82;4.38;;;;;;;;;;5053510;28;20416;-63
2023/06/24 09:43:26;;;;;;;7.85;3.70;;;;;;;;;;5041971;28;20026;-62
2023/06/24 09:45:52;;;;;;;7.57;3.90;;;;;;;;;;5044057;28;20020;-63
2023/06/24 09:48:17;;;;;;;10.05;3.78;;;;;;;;;;5042173;28;20768;-63
2023/06/24 09:50:42;;;;;;;7.63;3.92;;;;;;;;;;5046017;28;20025;-63
2023/06/24 09:53:07;;;;;;;7.87;3.90;;;;;;;;;;5041181;28;20033;-63
2023/06/24 09:55:32;;;;;;;9.50;3.97;;;;;;;;;;5043295;28;20029;-63
2023/06/24 09:57:58;;;;;;;7.80;3.63;;;;;;;;;;5029986;28;20048;-62
2023/06/24 10:00:23;;;;;;;8.30;4.13;;;;;;;;;;5031880;28;20057;-64
2023/06/24 10:02:48;;;;;;;6.83;3.70;;;;;;;;;;5040740;28;20103;-62
2023/06/24 10:05:14;;;;;;;6.47;3.72;;;;;;;;;;5040456;28;20094;-64
2023/06/24 10:07:40;;;;;;;8.97;3.77;;;;;;;;;;5046976;28;20048;-64
2023/06/24 10:10:05;;;;;;;7.85;3.90;;;;;;;;;;5036747;28;20029;-63
2023/06/24 10:12:31;;;;;;;7.70;3.90;;;;;;;;;;5052101;28;20036;-64
2023/06/24 10:14:56;;;;;;;;;;;;;;;;;;5053988;28;20021;-63
2023/06/24 10:17:22;;;;;;;7.40;3.28;;;;;;;;;;5053203;28;19923;-64
2023/06/24 10:19:47;;;;;;;7.00;3.53;;;;;;;;;;5053297;28;20021;-63
2023/06/24 10:22:12;;;;;;;6.50;3.90;;;;;;;;;;5052795;28;20099;-64
2023/06/24 10:24:44;;;;;;;7.27;3.60;;;;;;;;;;5052064;28;20025;-65
2023/06/24 10:27:14;;;;;;;7.78;3.63;;;;;;;;;;5041241;28;20024;-64
2023/06/24 10:29:39;;;;;;;9.23;4.10;;;;;;;;;;5052375;28;20017;-64
2023/06/24 10:32:08;;;;;;;7.68;3.72;;;;;;;;;;5052265;28;20176;-62
2023/06/24 10:34:33;;;;;;;6.45;3.78;;;;;;;;;;5052970;28;20025;-64
2023/06/24 10:37:04;;;;;;;7.70;3.92;;;;;;;;;;5050986;28;20092;-63
2023/06/24 10:39:40;;;;;;;8.40;4.32;;;;;;;;;;5052585;28;20028;-63
2023/06/24 10:42:23;;;;;;;10.18;4.88;;;;;;;;;;5041491;28;20464;-63
2023/06/24 10:44:49;;;;;;;8.13;4.38;;;;;;;;;;5042099;28;20036;-63
2023/06/24 10:47:14;;;;;;;7.03;4.15;;;;;;;;;;5032703;28;20381;-64
2023/06/24 10:49:39;;;;;;;6.63;3.50;;;;;;;;;;5032922;28;20555;-62
2023/06/24 10:52:07;;;;;;;10.13;4.32;;;;;;;;;;5031993;28;20057;-61
2023/06/24 10:54:32;;;;;;;6.78;3.40;;;;;;;;;;5043775;28;20029;-63
2023/06/24 10:56:58;;;;;;;8.10;3.73;;;;;;;;;;5052244;28;20020;-63
2023/06/24 10:59:23;;;;;;;6.68;3.85;;;;;;;;;;5044808;28;20338;-63
2023/06/24 11:01:52;;;;;;;6.25;3.40;;;;;;;;;;5052031;28;20033;-62
2023/06/24 11:04:17;;;;;;;5.25;3.13;;;;;;;;;;5052324;28;20025;-62
2023/06/24 11:06:42;;;;;;;7.32;4.07;;;;;;;;;;5052394;28;20017;-63
2023/06/24 11:09:07;;;;;;;7.57;3.50;;;;;;;;;;5052636;28;20025;-64
2023/06/24 11:11:32;;;;;;;9.10;3.58;;;;;;;;;;5054333;28;20047;-63
2023/06/24 11:13:58;;;;;;;6.93;3.50;;;;;;;;;;5046548;28;20026;-64
2023/06/24 11:16:23;;;;;;;7.32;3.60;;;;;;;;;;5053398;28;20021;-64
2023/06/24 11:18:48;;;;;;;6.28;3.45;;;;;;;;;;5052418;28;20037;-64
2023/06/24 11:21:13;;;;;;;7.67;3.63;;;;;;;;;;5052480;28;20049;-64
2023/06/24 11:23:39;;;;;;;6.25;3.38;;;;;;;;;;5051552;28;20052;-64
2023/06/24 11:26:04;;;;;;;7.57;3.90;;;;;;;;;;5051940;28;20037;-64
2023/06/24 11:28:31;;;;;;;7.18;4.18;;;;;;;;;;5050542;28;20389;-65
2023/06/24 11:30:56;;;;;;;6.63;3.92;;;;;;;;;;5051912;28;20116;-62
2023/06/24 11:33:28;;;;;;;7.53;3.97;;;;;;;;;;5046661;28;20021;-63
2023/06/24 11:35:53;;;;;;;7.78;3.85;;;;;;;;;;5044196;28;20120;-65
2023/06/24 11:38:18;;;;;;;9.15;4.43;;;;;;;;;;5051999;28;20108;-65
2023/06/24 11:40:47;;;;;;;6.57;3.80;;;;;;;;;;5051453;28;20090;-63
2023/06/24 11:43:12;;;;;;;9.50;4.15;;;;;;;;;;5047586;28;20511;-62
2023/06/24 11:45:38;;;;;;;9.27;4.35;;;;;;;;;;5049793;28;20036;-64
2023/06/24 11:48:07;;;;;;;8.17;4.17;;;;;;;;;;5051450;28;20505;-64
2023/06/24 11:50:32;;;;;;;7.10;4.20;;;;;;;;;;5051710;28;20100;-62
2023/06/24 11:52:58;;;;;;;6.72;3.80;;;;;;;;;;5051123;28;20108;-65
2023/06/24 11:55:24;;;;;;;8.20;4.53;;;;;;;;;;5051543;28;20036;-64
2023/06/24 11:57:49;;;;;;;6.80;3.72;;;;;;;;;;5051352;28;20530;-64
2023/06/24 12:00:15;;;;;;;7.13;4.13;;;;;;;;;;5048398;28;20056;-65
2023/06/24 12:02:40;;;;;;;7.03;3.80;;;;;;;;;;5048399;28;20032;-64
2023/06/24 12:05:05;;;;;;;6.73;4.00;;;;;;;;;;5036416;28;20467;-64
2023/06/24 12:07:30;;;;;;;6.83;4.00;;;;;;;;;;5051373;28;20503;-64
2023/06/24 12:09:55;;;;;;;8.25;3.88;;;;;;;;;;5051604;28;20419;-63
2023/06/24 12:12:21;;;;;;;7.83;3.97;;;;;;;;;;5050819;28;20024;-62
2023/06/24 12:14:46;;;;;;;8.43;4.10;;;;;;;;;;5051346;28;20025;-63
2023/06/24 12:17:11;;;;;;;6.78;3.70;;;;;;;;;;5043374;28;20033;-63
2023/06/24 12:19:36;;;;;;;5.80;3.60;;;;;;;;;;5049023;28;20013;-61
2023/06/24 12:22:02;;;;;;;7.07;3.90;;;;;;;;;;5050535;28;20021;-64
2023/06/24 12:24:27;;;;;;;6.00;3.67;;;;;;;;;;5050848;28;20020;-64
2023/06/24 12:26:52;;;;;;;7.70;3.70;;;;;;;;;;5050558;28;20423;-64
2023/06/24 12:29:17;;;;;;;7.00;3.93;;;;;;;;;;5050700;28;20021;-64
2023/06/24 12:31:42;;;;;;;6.67;3.80;;;;;;;;;;5049388;28;20025;-63
2023/06/24 12:34:07;;;;;;;7.27;4.03;;;;;;;;;;5050189;28;20558;-63
2023/06/24 12:36:33;;;;;;;7.03;3.97;;;;;;;;;;5050656;28;20021;-62
2023/06/24 12:38:58;;;;;;;6.25;3.83;;;;;;;;;;5047929;28;20128;-63
2023/06/24 12:41:23;;;;;;;8.27;4.30;;;;;;;;;;5038691;28;20024;-63
2023/06/24 12:43:48;;;;;;;7.38;3.90;;;;;;;;;;5037010;28;20087;-63
2023/06/24 12:46:13;;;;;;;6.53;4.07;;;;;;;;;;5040040;28;20025;-65
2023/06/24 12:48:38;;;;;;;8.60;3.72;;;;;;;;;;5040126;28;20079;-63
2023/06/24 12:51:04;;;;;;;6.82;3.90;;;;;;;;;;5036223;28;20466;-63
2023/06/24 12:53:29;;;;;;;7.53;3.72;;;;;;;;;;5036378;28;20026;-62
2023/06/24 12:55:55;;;;;;;7.37;4.00;;;;;;;;;;5050266;28;20098;-63
2023/06/24 12:58:22;;;;;;;9.45;3.90;;;;;;;;;;5050779;28;20025;-65
2023/06/24 13:00:47;;;;;;;6.28;3.53;;;;;;;;;;5050315;28;20100;-62
2023/06/24 13:03:12;;;;;;;6.17;3.50;;;;;;;;;;5049840;28;20108;-63
2023/06/24 13:05:37;;;;;;;7.10;4.15;;;;;;;;;;5050449;28;20024;-64
2023/06/24 13:08:03;;;;;;;8.38;4.40;;;;;;;;;;5043383;28;20026;-64
2023/06/24 13:10:28;;;;;;;8.20;4.07;;;;;;;;;;5047015;28;20538;-65
2023/06/24 13:12:53;;;;;;;7.47;4.03;;;;;;;;;;5049603;28;20028;-63
2023/06/24 13:15:18;;;;;;;7.20;3.70;;;;;;;;;;5050395;28;20021;-64
2023/06/24 13:17:43;;;;;;;5.85;3.42;;;;;;;;;;5050062;28;20029;-61
2023/06/24 13:20:09;;;;;;;7.03;3.80;;;;;;;;;;5050391;28;20037;-63
2023/06/24 13:22:34;;;;;;;6.65;3.55;;;;;;;;;;5037718;28;20054;-63
2023/06/24 13:25:00;;;;;;;7.75;4.00;;;;;;;;;;5040227;28;20033;-62
2023/06/24 13:27:25;;;;;;;7.63;4.00;;;;;;;;;;5051326;28;20051;-65
2023/06/24 13:29:50;;;;;;;7.43;4.60;;;;;;;;;;5046133;28;20807;-62
2023/06/24 13:32:15;;;;;;;7.05;3.38;;;;;;;;;;5056103;28;20024;-64
2023/06/24 13:34:41;;;;;;;6.93;3.50;;;;;;;;;;5058233;28;20025;-63
2023/06/24 13:37:06;;;;;;;6.05;3.40;;;;;;;;;;5053813;28;20119;-64
2023/06/24 13:39:32;;;;;;;6.68;3.47;;;;;;;;;;5049876;28;20021;-64
2023/06/24 13:41:57;;;;;;;7.68;3.67;;;;;;;;;;5038775;28;20029;-63
2023/06/24 13:44:23;;;;;;;7.03;3.67;;;;;;;;;;5035230;28;20388;-63
2023/06/24 13:46:49;;;;;;;6.57;4.20;;;;;;;;;;5040748;28;20028;-61
2023/06/24 13:49:15;;;;;;;6.15;3.55;;;;;;;;;;5027078;28;20021;-64
2023/06/24 13:51:40;;;;;;;5.68;3.33;;;;;;;;;;5052113;28;20032;-63
2023/06/24 13:54:05;;;;;;;7.27;3.60;;;;;;;;;;5046713;28;20032;-63
2023/06/24 13:56:30;;;;;;;6.10;3.08;;;;;;;;;;5042174;28;20483;-62
2023/06/24 13:58:56;;;;;;;7.53;3.53;;;;;;;;;;5052920;28;20025;-62
2023/06/24 14:01:22;;;;;;;6.53;3.63;;;;;;;;;;5048437;28;20062;-65
2023/06/24 14:03:47;;;;;;;8.43;3.33;;;;;;;;;;5053003;28;20017;-64
2023/06/24 14:06:17;;;;;;;5.93;3.50;;;;;;;;;;5045225;28;20954;-63
2023/06/24 14:08:43;;;;;;;6.53;3.50;;;;;;;;;;5050090;28;20108;-61
2023/06/24 14:11:08;;;;;;;5.65;3.42;;;;;;;;;;5041474;28;20528;-62
2023/06/24 14:13:36;;;;;;;6.57;3.50;;;;;;;;;;5043401;28;20025;-64
2023/06/24 14:16:01;;;;;;;5.25;3.10;;;;;;;;;;5046093;28;20029;-62
2023/06/24 14:18:26;;;;;;;8.52;3.47;;;;;;;;;;5033674;28;20040;-64
2023/06/24 14:20:51;;;;;;;6.03;3.43;;;;;;;;;;5046437;28;20484;-63